createdAt,value
2017-10-25T00:02:20.930Z,101148
2017-10-25T00:04:51.897Z,101149
2017-10-25T00:07:21.071Z,101156
2017-10-25T00:09:51.140Z,101155
2017-10-25T00:12:20.476Z,101150
2017-10-25T00:14:50.010Z,101141
2017-10-25T00:17:19.201Z,101149
2017-10-25T00:19:48.866Z,101145
2017-10-25T00:22:18.114Z,101152
2017-10-25T00:24:47.211Z,101145
2017-10-25T00:27:17.175Z,101151
2017-10-25T00:29:48.728Z,101161
2017-10-25T00:32:17.851Z,101169
2017-10-25T00:34:47.028Z,101173
2017-10-25T00:37:17.721Z,101176
2017-10-25T00:39:48.115Z,101170
2017-10-25T00:42:18.043Z,101171
2017-10-25T00:44:48.048Z,101166
2017-10-25T00:47:18.080Z,101157
2017-10-25T00:49:47.996Z,101161
2017-10-25T00:52:17.245Z,101161
2017-10-25T00:54:48.418Z,101168
2017-10-25T00:57:17.593Z,101160
2017-10-25T00:59:49.385Z,101160
2017-10-25T01:02:18.923Z,101161
2017-10-25T01:04:48.053Z,101155
2017-10-25T01:07:17.265Z,101157
2017-10-25T01:09:46.410Z,101152
2017-10-25T01:12:16.368Z,101169
2017-10-25T01:14:47.541Z,101161
2017-10-25T01:17:16.829Z,101160
2017-10-25T01:19:46.800Z,101163
2017-10-25T01:22:16.201Z,101152
2017-10-25T01:24:45.342Z,101156
2017-10-25T01:27:14.498Z,101152
2017-10-25T01:29:44.050Z,101150
2017-10-25T01:32:13.441Z,101150
2017-10-25T01:34:42.663Z,101158
2017-10-25T01:37:11.822Z,101157
2017-10-25T01:39:41.952Z,101162
2017-10-25T01:42:11.166Z,101153
2017-10-25T01:44:40.422Z,101155
2017-10-25T01:47:09.589Z,101163
2017-10-25T01:49:38.726Z,101151
2017-10-25T01:52:09.375Z,101147
2017-10-25T01:54:39.297Z,101150
2017-10-25T01:57:09.226Z,101145
2017-10-25T01:59:39.256Z,101146
2017-10-25T02:02:09.354Z,101139
2017-10-25T02:04:38.537Z,101135
2017-10-25T02:07:08.229Z,101141
2017-10-25T02:09:37.334Z,101141
2017-10-25T02:12:06.448Z,101145
2017-10-25T02:14:35.842Z,101142
2017-10-25T02:17:05.713Z,101136
2017-10-25T02:19:34.802Z,101127
2017-10-25T02:22:05.297Z,101132
2017-10-25T02:24:34.510Z,101121
2017-10-25T02:27:03.631Z,101121
2017-10-25T02:29:32.823Z,101115
2017-10-25T02:32:01.921Z,101108
2017-10-25T02:34:31.014Z,101108
2017-10-25T02:37:01.254Z,101109
2017-10-25T02:39:31.309Z,101101
2017-10-25T02:42:00.410Z,101116
2017-10-25T02:44:30.630Z,101120
2017-10-25T02:46:59.951Z,101116
2017-10-25T02:49:29.058Z,101121
2017-10-25T02:51:59.250Z,101118
2017-10-25T02:54:29.148Z,101119
2017-10-25T02:56:58.255Z,101123
2017-10-25T02:59:28.248Z,101119
2017-10-25T03:01:58.362Z,101123
2017-10-25T03:04:27.468Z,101118
2017-10-25T03:06:57.111Z,101118
2017-10-25T03:09:26.262Z,101112
2017-10-25T03:11:55.396Z,101111
2017-10-25T03:14:24.543Z,101114
2017-10-25T03:16:53.789Z,101107
2017-10-25T03:19:22.986Z,101110
2017-10-25T03:21:52.494Z,101104
2017-10-25T03:24:21.711Z,101104
2017-10-25T03:26:50.872Z,101098
2017-10-25T03:29:20.481Z,101101
2017-10-25T03:31:49.590Z,101094
2017-10-25T03:34:18.688Z,101093
2017-10-25T03:36:48.725Z,101091
2017-10-25T03:39:17.837Z,101094
2017-10-25T03:41:46.918Z,101095
2017-10-25T03:44:17.169Z,101096
2017-10-25T03:46:47.030Z,101096
2017-10-25T03:49:16.141Z,101090
2017-10-25T03:51:46.120Z,101083
2017-10-25T03:54:15.202Z,101082
2017-10-25T03:56:44.359Z,101075
2017-10-25T03:59:15.239Z,101073
2017-10-25T04:01:44.317Z,101072
2017-10-25T04:04:13.413Z,101065
2017-10-25T04:06:43.764Z,101069
2017-10-25T04:09:13.640Z,101064
2017-10-25T04:11:42.768Z,101061
2017-10-25T04:14:11.895Z,101059
2017-10-25T04:16:40.986Z,101057
2017-10-25T04:19:10.083Z,101054
2017-10-25T04:21:39.213Z,101054
2017-10-25T04:24:08.342Z,101049
2017-10-25T04:26:38.193Z,101040
2017-10-25T04:29:07.868Z,101028
2017-10-25T04:31:37.594Z,101028
2017-10-25T04:34:06.720Z,101024
2017-10-25T04:36:35.941Z,101025
2017-10-25T04:39:05.146Z,101024
2017-10-25T04:41:35.079Z,101023
2017-10-25T04:44:05.031Z,101025
2017-10-25T04:46:34.119Z,101025
2017-10-25T04:49:03.227Z,101028
2017-10-25T04:51:32.658Z,101028
2017-10-25T04:54:01.845Z,101012
2017-10-25T04:56:30.926Z,101015
2017-10-25T04:59:00.118Z,101002
2017-10-25T05:01:29.206Z,100998
2017-10-25T05:03:58.448Z,100989
2017-10-25T05:06:27.671Z,100995
2017-10-25T05:08:56.809Z,100997
2017-10-25T05:11:26.004Z,100987
2017-10-25T05:13:57.889Z,100988
2017-10-25T05:16:27.098Z,100985
2017-10-25T05:18:56.234Z,100988
2017-10-25T05:21:26.602Z,100981
2017-10-25T05:23:55.815Z,100984
2017-10-25T05:26:24.991Z,100983
2017-10-25T05:28:54.174Z,100989
2017-10-25T05:31:23.389Z,100988
2017-10-25T05:33:53.426Z,100976
2017-10-25T05:36:28.387Z,100959
2017-10-25T05:38:58.564Z,100976
2017-10-25T05:41:27.772Z,100974
2017-10-25T05:43:57.620Z,100966
2017-10-25T05:46:27.529Z,100970
2017-10-25T05:48:56.651Z,100967
2017-10-25T05:51:27.192Z,100968
2017-10-25T05:53:56.366Z,100969
2017-10-25T05:56:25.478Z,100972
2017-10-25T05:58:55.221Z,100965
2017-10-25T06:01:24.466Z,100973
2017-10-25T06:03:54.358Z,100964
2017-10-25T06:06:23.628Z,100967
2017-10-25T06:08:52.801Z,100971
2017-10-25T06:11:22.069Z,100969
2017-10-25T06:13:52.962Z,100964
2017-10-25T06:16:22.198Z,100973
2017-10-25T06:18:51.354Z,100971
2017-10-25T06:21:20.637Z,100961
2017-10-25T06:23:50.725Z,100967
2017-10-25T06:26:20.695Z,100969
2017-10-25T06:28:50.164Z,100973
2017-10-25T06:31:19.326Z,100972
2017-10-25T06:33:48.411Z,100980
2017-10-25T06:36:18.594Z,100984
2017-10-25T06:38:47.714Z,100982
2017-10-25T06:41:16.883Z,100973
2017-10-25T06:43:47.835Z,100967
2017-10-25T06:46:16.964Z,100967
2017-10-25T06:48:46.151Z,100971
2017-10-25T06:51:15.391Z,100969
2017-10-25T06:53:44.551Z,100970
2017-10-25T06:56:14.400Z,100978
2017-10-25T06:58:44.630Z,100973
2017-10-25T07:01:14.906Z,100972
2017-10-25T07:03:44.081Z,100974
2017-10-25T07:06:14.985Z,100978
2017-10-25T07:08:44.413Z,100978
2017-10-25T07:11:13.570Z,100974
2017-10-25T07:13:46.768Z,100967
2017-10-25T07:16:16.082Z,100978
2017-10-25T07:18:45.310Z,100976
2017-10-25T07:21:15.409Z,100959
2017-10-25T07:23:44.483Z,100943
2017-10-25T07:26:13.657Z,100948
2017-10-25T07:28:45.789Z,100943
2017-10-25T07:31:14.913Z,100941
2017-10-25T07:33:44.693Z,100936
2017-10-25T07:36:13.918Z,100937
2017-10-25T07:38:43.022Z,100937
2017-10-25T07:41:12.204Z,100936
2017-10-25T07:43:42.559Z,100926
2017-10-25T07:46:11.854Z,100937
2017-10-25T07:48:40.977Z,100936
2017-10-25T07:51:10.107Z,100931
2017-10-25T07:53:39.228Z,100937
2017-10-25T07:56:09.212Z,100940
2017-10-25T07:58:39.487Z,100946
2017-10-25T08:01:08.571Z,100933
2017-10-25T08:03:37.703Z,100929
2017-10-25T08:06:07.646Z,100927
2017-10-25T08:08:37.404Z,100929
2017-10-25T08:11:07.269Z,100928
2017-10-25T08:13:38.402Z,100938
2017-10-25T08:16:07.530Z,100928
2017-10-25T08:18:36.635Z,100934
2017-10-25T08:21:06.159Z,100928
2017-10-25T08:23:35.246Z,100933
2017-10-25T08:26:05.153Z,100925
2017-10-25T08:28:35.052Z,100923
2017-10-25T08:31:04.139Z,100920
2017-10-25T08:33:33.243Z,100930
2017-10-25T08:36:03.551Z,100918
2017-10-25T08:38:33.404Z,100916
2017-10-25T08:41:03.479Z,100916
2017-10-25T08:43:33.982Z,100899
2017-10-25T08:46:03.115Z,100898
2017-10-25T08:48:32.208Z,100908
2017-10-25T08:51:01.371Z,100897
2017-10-25T08:53:30.499Z,100900
2017-10-25T08:55:59.716Z,100901
2017-10-25T08:58:29.143Z,100915
2017-10-25T09:00:58.269Z,100912
2017-10-25T09:03:28.605Z,100921
2017-10-25T09:05:58.285Z,100905
2017-10-25T09:08:27.537Z,100896
2017-10-25T09:10:56.702Z,100911
2017-10-25T09:13:27.095Z,100899
2017-10-25T09:15:56.260Z,100896
2017-10-25T09:18:25.467Z,100885
2017-10-25T09:20:54.674Z,100876
2017-10-25T09:23:24.582Z,100899
2017-10-25T09:25:54.000Z,100889
2017-10-25T09:28:24.422Z,100892
2017-10-25T09:30:53.619Z,100884
2017-10-25T09:33:23.027Z,100897
2017-10-25T09:35:52.203Z,100894
2017-10-25T09:38:21.675Z,100892
2017-10-25T09:40:50.841Z,100899
2017-10-25T09:43:20.379Z,100891
2017-10-25T09:45:49.560Z,100911
2017-10-25T09:48:19.862Z,100912
2017-10-25T09:50:50.664Z,100899
2017-10-25T09:53:19.776Z,100921
2017-10-25T09:55:49.061Z,100915
2017-10-25T09:58:18.188Z,100918
2017-10-25T10:00:47.300Z,100932
2017-10-25T10:03:16.591Z,100923
2017-10-25T10:05:47.593Z,100904
2017-10-25T10:08:16.805Z,100917
2017-10-25T10:10:45.890Z,100919
2017-10-25T10:13:15.217Z,100921
2017-10-25T10:15:44.554Z,100926
2017-10-25T10:18:13.870Z,100937
2017-10-25T10:20:43.852Z,100927
2017-10-25T10:23:13.088Z,100943
2017-10-25T10:25:42.270Z,100930
2017-10-25T10:28:11.506Z,100947
2017-10-25T10:30:40.782Z,100938
2017-10-25T10:33:10.924Z,100934
2017-10-25T10:35:40.635Z,100942
2017-10-25T10:38:09.915Z,100939
2017-10-25T10:40:39.077Z,100948
2017-10-25T10:43:09.511Z,100962
2017-10-25T10:45:38.664Z,100966
2017-10-25T10:48:07.948Z,100950
2017-10-25T10:50:37.379Z,100968
2017-10-25T10:53:06.487Z,100971
2017-10-25T10:55:35.654Z,100952
2017-10-25T10:58:05.548Z,100965
2017-10-25T11:00:35.629Z,100960
2017-10-25T11:03:04.769Z,100959
2017-10-25T11:05:34.146Z,100955
2017-10-25T11:08:04.372Z,100958
2017-10-25T11:10:33.515Z,100969
2017-10-25T11:13:03.163Z,100977
2017-10-25T11:15:32.285Z,100955
2017-10-25T11:18:02.648Z,100968
2017-10-25T11:20:33.398Z,100968
2017-10-25T11:23:03.438Z,100981
2017-10-25T11:25:33.117Z,100978
2017-10-25T11:28:02.660Z,100982
2017-10-25T11:30:31.811Z,100990
2017-10-25T11:33:01.197Z,100987
2017-10-25T11:35:30.406Z,100984
2017-10-25T11:38:03.476Z,100980
2017-10-25T11:40:33.429Z,100987
2017-10-25T11:43:02.576Z,100993
2017-10-25T11:45:31.718Z,100995
2017-10-25T11:48:00.850Z,100995
2017-10-25T11:50:29.962Z,101007
2017-10-25T11:53:00.762Z,101018
2017-10-25T11:55:31.114Z,101036
2017-10-25T11:58:00.340Z,101032
2017-10-25T12:00:33.269Z,101034
2017-10-25T12:03:02.492Z,101046
2017-10-25T12:05:32.409Z,101052
2017-10-25T12:08:02.764Z,101055
2017-10-25T12:10:33.401Z,101055
2017-10-25T12:13:02.610Z,101059
2017-10-25T12:15:32.327Z,101063
2017-10-25T12:18:03.240Z,101065
2017-10-25T12:20:32.362Z,101072
2017-10-25T12:23:03.148Z,101070
2017-10-25T12:25:32.375Z,101081
2017-10-25T12:28:01.669Z,101084
2017-10-25T12:30:31.719Z,101094
2017-10-25T12:33:00.845Z,101092
2017-10-25T12:35:30.021Z,101100
2017-10-25T12:37:59.148Z,101108
2017-10-25T12:40:28.280Z,101109
2017-10-25T12:42:58.504Z,101109
2017-10-25T12:45:28.123Z,101096
2017-10-25T12:47:57.309Z,101116
2017-10-25T12:50:26.513Z,101120
2017-10-25T12:52:55.932Z,101123
2017-10-25T12:55:25.428Z,101137
2017-10-25T12:57:55.518Z,101149
2017-10-25T13:00:24.930Z,101147
2017-10-25T13:02:54.407Z,101161
2017-10-25T13:05:24.335Z,101154
2017-10-25T13:07:53.707Z,101161
2017-10-25T13:10:45.416Z,101163
2017-10-25T13:13:43.261Z,101174
2017-10-25T13:16:34.148Z,101186
2017-10-25T13:19:05.490Z,101199
2017-10-25T13:21:36.046Z,101197
2017-10-25T13:24:05.211Z,101201
2017-10-25T13:26:34.296Z,101200
2017-10-25T13:29:03.691Z,101200
2017-10-25T13:31:33.722Z,101209
2017-10-25T13:34:02.981Z,101227
2017-10-25T13:36:32.076Z,101216
2017-10-25T13:39:02.115Z,101227
2017-10-25T13:41:31.982Z,101240
2017-10-25T13:44:01.106Z,101252
2017-10-25T13:46:31.277Z,101250
2017-10-25T13:49:02.731Z,101256
2017-10-25T13:51:32.784Z,101259
2017-10-25T13:54:02.857Z,101271
2017-10-25T13:56:32.324Z,101262
2017-10-25T13:59:01.507Z,101264
2017-10-25T14:01:30.599Z,101262
2017-10-25T14:03:59.723Z,101259
2017-10-25T14:06:30.375Z,101254
2017-10-25T14:08:59.572Z,101248
2017-10-25T14:11:28.700Z,101258
2017-10-25T14:13:57.815Z,101267
2017-10-25T14:16:26.969Z,101277
2017-10-25T14:18:56.145Z,101291
2017-10-25T14:21:25.414Z,101287
2017-10-25T14:23:54.638Z,101283
2017-10-25T14:26:42.821Z,101290
2017-10-25T14:29:12.685Z,101291
2017-10-25T14:31:41.937Z,101302
2017-10-25T14:34:11.955Z,101324
2017-10-25T14:36:42.208Z,101319
2017-10-25T14:39:13.171Z,101322
2017-10-25T14:41:43.704Z,101333
2017-10-25T14:44:13.343Z,101325
2017-10-25T14:46:43.375Z,101324
2017-10-25T14:49:13.416Z,101329
2017-10-25T14:51:42.532Z,101332
2017-10-25T14:54:11.744Z,101331
2017-10-25T14:56:40.889Z,101340
2017-10-25T14:59:10.121Z,101345
2017-10-25T15:01:39.535Z,101343
2017-10-25T15:04:09.289Z,101345
2017-10-25T15:06:38.405Z,101359
2017-10-25T15:09:08.033Z,101350
2017-10-25T15:11:37.107Z,101365
2017-10-25T15:14:06.956Z,101367
2017-10-25T15:16:36.070Z,101372
2017-10-25T15:19:05.957Z,101369
2017-10-25T15:21:35.023Z,101366
2017-10-25T15:24:04.204Z,101357
2017-10-25T15:26:33.333Z,101373
2017-10-25T15:29:02.433Z,101384
2017-10-25T15:31:31.559Z,101380
2017-10-25T15:34:01.628Z,101377
2017-10-25T15:36:30.947Z,101379
2017-10-25T15:39:00.188Z,101382
2017-10-25T15:41:30.041Z,101390
2017-10-25T15:43:59.143Z,101389
2017-10-25T15:46:28.884Z,101401
2017-10-25T15:48:58.675Z,101405
2017-10-25T15:51:27.933Z,101399
2017-10-25T15:53:57.422Z,101398
2017-10-25T15:56:27.803Z,101406
2017-10-25T15:58:57.900Z,101407
2017-10-25T16:01:27.181Z,101409
2017-10-25T16:03:57.319Z,101402
2017-10-25T16:06:26.481Z,101404
2017-10-25T16:08:56.248Z,101403
2017-10-25T16:11:25.860Z,101410
2017-10-25T16:13:56.415Z,101422
2017-10-25T16:16:26.016Z,101419
2017-10-25T16:18:55.676Z,101428
2017-10-25T16:21:25.679Z,101428
2017-10-25T16:23:55.580Z,101431
2017-10-25T16:26:24.817Z,101427
2017-10-25T16:28:57.211Z,101428
2017-10-25T16:31:28.297Z,101426
2017-10-25T16:33:57.492Z,101438
2017-10-25T16:36:30.554Z,101448
2017-10-25T16:38:59.745Z,101447
2017-10-25T16:41:41.095Z,101449
2017-10-25T16:44:10.729Z,101454
2017-10-25T16:46:39.882Z,101461
2017-10-25T16:49:10.356Z,101465
2017-10-25T16:51:40.680Z,101464
2017-10-25T16:54:10.235Z,101469
2017-10-25T16:56:39.689Z,101470
2017-10-25T16:59:09.748Z,101476
2017-10-25T17:01:38.955Z,101480
2017-10-25T17:04:08.274Z,101483
2017-10-25T17:06:37.615Z,101486
2017-10-25T17:09:08.116Z,101489
2017-10-25T17:11:37.348Z,101497
2017-10-25T17:14:06.532Z,101494
2017-10-25T17:16:36.941Z,101509
2017-10-25T17:19:06.661Z,101517
2017-10-25T17:21:35.760Z,101516
2017-10-25T17:24:04.852Z,101519
2017-10-25T17:26:33.991Z,101528
2017-10-25T17:29:03.949Z,101525
2017-10-25T17:31:33.835Z,101532
2017-10-25T17:34:04.842Z,101532
2017-10-25T17:36:35.532Z,101526
2017-10-25T17:39:04.748Z,101533
2017-10-25T17:41:34.271Z,101528
2017-10-25T17:44:04.936Z,101534
2017-10-25T17:46:34.038Z,101536
2017-10-25T17:49:04.426Z,101535
2017-10-25T17:51:33.611Z,101537
2017-10-25T17:54:03.629Z,101539
2017-10-25T17:56:33.327Z,101546
2017-10-25T17:59:03.252Z,101552
2017-10-25T18:01:33.237Z,101557
2017-10-25T18:04:02.407Z,101562
2017-10-25T18:06:31.743Z,101564
2017-10-25T18:09:01.107Z,101559
2017-10-25T18:11:30.337Z,101560
2017-10-25T18:14:04.273Z,101559
2017-10-25T18:16:35.075Z,101563
2017-10-25T18:19:04.278Z,101558
2017-10-25T18:21:34.355Z,101561
2017-10-25T18:24:04.290Z,101561
2017-10-25T18:26:33.620Z,101562
2017-10-25T18:29:02.733Z,101563
2017-10-25T18:31:31.949Z,101565
2017-10-25T18:34:01.459Z,101571
2017-10-25T18:36:31.770Z,101571
2017-10-25T18:39:04.106Z,101571
2017-10-25T18:41:34.321Z,101571
2017-10-25T18:44:03.600Z,101576
2017-10-25T18:46:33.639Z,101569
2017-10-25T18:49:02.749Z,101570
2017-10-25T18:51:31.966Z,101580
2017-10-25T18:54:03.049Z,101575
2017-10-25T18:56:32.464Z,101578
2017-10-25T18:59:02.038Z,101578
2017-10-25T19:01:31.385Z,101583
2017-10-25T19:04:01.871Z,101582
2017-10-25T19:06:31.035Z,101595
2017-10-25T19:09:01.138Z,101590
2017-10-25T19:11:32.427Z,101595
2017-10-25T19:14:02.850Z,101600
2017-10-25T19:16:34.108Z,101608
2017-10-25T19:19:05.161Z,101608
2017-10-25T19:21:40.855Z,101606
2017-10-25T19:24:10.379Z,101612
2017-10-25T19:26:43.682Z,101623
2017-10-25T19:29:14.240Z,101625
2017-10-25T19:31:44.191Z,101622
2017-10-25T19:34:15.292Z,101612
2017-10-25T19:36:45.361Z,101623
2017-10-25T19:39:14.496Z,101626
2017-10-25T19:41:43.737Z,101614
2017-10-25T19:44:15.844Z,101629
2017-10-25T19:46:45.333Z,101631
2017-10-25T19:49:16.455Z,101631
2017-10-25T19:51:46.598Z,101640
2017-10-25T19:54:18.523Z,101636
2017-10-25T19:56:47.782Z,101647
2017-10-25T19:59:18.712Z,101649
2017-10-25T20:01:51.563Z,101654
2017-10-25T20:04:21.726Z,101654
2017-10-25T20:06:53.918Z,101656
2017-10-25T20:09:23.740Z,101659
2017-10-25T20:11:55.380Z,101654
2017-10-25T20:14:26.956Z,101661
2017-10-25T20:16:58.638Z,101659
2017-10-25T20:19:28.060Z,101655
2017-10-25T20:21:58.513Z,101651
2017-10-25T20:24:28.003Z,101651
2017-10-25T20:26:57.152Z,101648
2017-10-25T20:29:28.556Z,101665
2017-10-25T20:31:58.212Z,101663
2017-10-25T20:34:28.314Z,101674
2017-10-25T20:36:58.478Z,101671
2017-10-25T20:39:28.924Z,101661
2017-10-25T20:41:58.181Z,101656
2017-10-25T20:44:30.481Z,101666
2017-10-25T20:47:00.674Z,101669
2017-10-25T20:49:31.958Z,101673
2017-10-25T20:52:03.055Z,101682
2017-10-25T20:54:32.364Z,101679
2017-10-25T20:57:01.671Z,101679
2017-10-25T20:59:37.436Z,101683
2017-10-25T21:02:07.701Z,101682
2017-10-25T21:04:37.696Z,101684
2017-10-25T21:07:07.453Z,101690
2017-10-25T21:09:38.474Z,101695
2017-10-25T21:12:08.496Z,101690
2017-10-25T21:14:40.323Z,101693
2017-10-25T21:17:19.880Z,101701
2017-10-25T21:19:52.393Z,101698
2017-10-25T21:22:22.131Z,101695
2017-10-25T21:24:53.183Z,101710
2017-10-25T21:27:22.484Z,101710
2017-10-25T21:29:55.884Z,101708
2017-10-25T21:32:26.816Z,101698
2017-10-25T21:34:56.322Z,101702
2017-10-25T21:37:26.337Z,101703
2017-10-25T21:39:56.738Z,101701
2017-10-25T21:42:28.400Z,101702
2017-10-25T21:44:57.939Z,101703
2017-10-25T21:47:27.326Z,101706
2017-10-25T21:49:57.549Z,101706
2017-10-25T21:52:27.605Z,101714
2017-10-25T21:54:56.951Z,101713
2017-10-25T21:57:26.347Z,101705
2017-10-25T21:59:55.552Z,101712
2017-10-25T22:02:25.581Z,101726
2017-10-25T22:04:54.789Z,101719
2017-10-25T22:07:25.897Z,101720
2017-10-25T22:09:56.289Z,101716
2017-10-25T22:12:25.560Z,101720
2017-10-25T22:14:55.029Z,101727
2017-10-25T22:17:25.152Z,101724
2017-10-25T22:19:54.379Z,101729
2017-10-25T22:22:23.974Z,101724
2017-10-25T22:24:53.257Z,101722
2017-10-25T22:27:22.413Z,101724
2017-10-25T22:29:51.625Z,101723
2017-10-25T22:32:21.241Z,101724
2017-10-25T22:34:50.389Z,101719
2017-10-25T22:37:20.183Z,101719
2017-10-25T22:39:50.090Z,101720
2017-10-25T22:42:19.304Z,101720
2017-10-25T22:44:48.396Z,101708
2017-10-25T22:47:19.396Z,101709
2017-10-25T22:49:48.512Z,101711
2017-10-25T22:52:17.635Z,101715
2017-10-25T22:54:46.891Z,101717
2017-10-25T22:57:15.970Z,101728
2017-10-25T22:59:45.075Z,101734
2017-10-25T23:02:15.136Z,101725
2017-10-25T23:04:44.988Z,101726
2017-10-25T23:07:14.171Z,101727
2017-10-25T23:09:43.866Z,101727
2017-10-25T23:12:13.006Z,101724
2017-10-25T23:14:42.524Z,101728
2017-10-25T23:17:12.663Z,101737
2017-10-25T23:19:41.871Z,101739
2017-10-25T23:22:10.978Z,101732
2017-10-25T23:24:40.903Z,101731
2017-10-25T23:27:09.995Z,101721
2017-10-25T23:29:40.114Z,101729
2017-10-25T23:32:09.257Z,101733
2017-10-25T23:34:39.108Z,101730
2017-10-25T23:37:08.195Z,101731
2017-10-25T23:39:37.649Z,101726
2017-10-25T23:42:06.742Z,101724
2017-10-25T23:44:35.818Z,101715
2017-10-25T23:47:05.046Z,101713
2017-10-25T23:49:34.144Z,101710
2017-10-25T23:52:03.247Z,101714
2017-10-25T23:54:32.479Z,101724
2017-10-25T23:57:01.670Z,101720
2017-10-25T23:59:31.531Z,101709
